createdAt,value
2022-09-01T00:00:03.259Z,0.60
2022-09-01T00:02:31.308Z,2.72
2022-09-01T00:04:59.440Z,0.50
2022-09-01T00:07:31.521Z,1.13
2022-09-01T00:10:00.073Z,1.10
2022-09-01T00:12:29.117Z,0.70
2022-09-01T00:14:56.799Z,0.95
2022-09-01T00:17:25.135Z,0.93
2022-09-01T00:19:52.420Z,0.88
2022-09-01T00:22:19.714Z,0.73
2022-09-01T00:24:47.160Z,1.25
2022-09-01T00:27:14.485Z,0.95
2022-09-01T00:29:43.416Z,0.82
2022-09-01T00:32:12.271Z,0.88
2022-09-01T00:34:39.985Z,0.75
2022-09-01T00:37:07.585Z,1.00
2022-09-01T00:39:34.955Z,1.25
2022-09-01T00:42:02.286Z,1.00
2022-09-01T00:44:31.358Z,1.10
2022-09-01T00:47:00.134Z,1.15
2022-09-01T00:49:41.080Z,1.00
2022-09-01T00:52:13.591Z,0.55
2022-09-01T00:54:50.650Z,0.60
2022-09-01T00:57:18.130Z,1.13
2022-09-01T00:59:58.028Z,0.68
2022-09-01T01:02:26.334Z,1.83
2022-09-01T01:04:56.139Z,0.82
2022-09-01T01:07:24.313Z,0.60
2022-09-01T01:09:52.090Z,0.60
2022-09-01T01:12:19.922Z,0.60
2022-09-01T01:14:52.210Z,0.80
2022-09-01T01:17:22.202Z,0.82
2022-09-01T01:20:09.522Z,0.50
2022-09-01T01:22:55.259Z,1.63
2022-09-01T01:25:22.617Z,0.73
2022-09-01T01:27:50.542Z,0.70
2022-09-01T01:30:20.870Z,1.40
2022-09-01T01:32:49.400Z,0.70
2022-09-01T01:35:19.043Z,0.82
2022-09-01T01:37:48.905Z,0.75
2022-09-01T01:40:19.740Z,3.13
2022-09-01T01:42:50.458Z,1.30
2022-09-01T01:45:20.727Z,0.93
2022-09-01T01:47:52.382Z,1.10
2022-09-01T01:50:33.595Z,0.82
2022-09-01T01:53:02.880Z,1.00
2022-09-01T01:55:39.799Z,1.05
2022-09-01T01:58:12.074Z,0.45
2022-09-01T02:00:39.842Z,1.23
2022-09-01T02:03:07.500Z,0.77
2022-09-01T02:05:36.694Z,1.85
2022-09-01T02:08:07.013Z,0.60
2022-09-01T02:10:38.998Z,0.90
2022-09-01T02:13:07.708Z,0.73
2022-09-01T02:15:44.442Z,0.50
2022-09-01T02:18:23.986Z,1.05
2022-09-01T02:20:53.144Z,1.55
2022-09-01T02:23:24.523Z,0.85
2022-09-01T02:26:15.090Z,0.60
2022-09-01T02:28:43.312Z,0.77
2022-09-01T02:31:11.894Z,0.70
2022-09-01T02:33:44.070Z,0.68
2022-09-01T02:36:15.267Z,0.60
2022-09-01T02:38:46.590Z,0.98
2022-09-01T02:41:15.590Z,0.47
2022-09-01T02:43:45.991Z,0.50
2022-09-01T02:46:15.413Z,0.60
2022-09-01T02:48:45.892Z,1.00
2022-09-01T02:51:17.131Z,0.60
2022-09-01T02:53:49.722Z,1.27
2022-09-01T02:56:18.566Z,0.73
2022-09-01T02:58:48.344Z,0.75
2022-09-01T03:01:33.092Z,1.15
2022-09-01T03:06:39.324Z,0.50
2022-09-01T03:09:14.598Z,0.40
2022-09-01T03:11:45.848Z,2.03
2022-09-01T03:14:13.363Z,2.10
2022-09-01T03:16:41.295Z,0.57
2022-09-01T03:19:09.742Z,1.23
2022-09-01T03:21:40.918Z,0.70
2022-09-01T03:24:15.231Z,1.20
2022-09-01T03:26:44.064Z,0.70
2022-09-01T03:29:11.566Z,1.00
2022-09-01T03:31:39.217Z,0.85
2022-09-01T03:34:06.698Z,0.57
2022-09-01T03:36:34.349Z,0.70
2022-09-01T03:39:02.309Z,0.95
2022-09-01T03:41:30.954Z,0.90
2022-09-01T03:43:58.947Z,0.85
2022-09-01T03:46:34.242Z,1.83
2022-09-01T03:49:06.875Z,2.10
2022-09-01T03:51:35.288Z,0.90
2022-09-01T03:54:02.561Z,0.50
2022-09-01T03:56:30.195Z,0.50
2022-09-01T03:58:59.784Z,0.88
2022-09-01T04:01:29.664Z,1.02
2022-09-01T04:03:57.982Z,0.60
2022-09-01T04:06:26.035Z,1.20
2022-09-01T04:08:56.790Z,0.80
2022-09-01T04:11:24.428Z,0.55
2022-09-01T04:13:52.763Z,0.93
2022-09-01T04:16:47.749Z,0.50
2022-09-01T04:19:25.303Z,0.82
2022-09-01T04:22:01.423Z,0.65
2022-09-01T04:24:32.202Z,1.10
2022-09-01T04:27:02.347Z,0.70
2022-09-01T04:29:31.832Z,1.85
2022-09-01T04:32:03.668Z,0.82
2022-09-01T04:34:37.412Z,1.17
2022-09-01T04:37:14.688Z,1.40
2022-09-01T04:39:51.470Z,1.02
2022-09-01T04:42:24.074Z,0.95
2022-09-01T04:44:53.973Z,0.80
2022-09-01T04:47:30.194Z,1.67
2022-09-01T04:50:07.177Z,0.65
2022-09-01T04:52:34.464Z,1.05
2022-09-01T04:55:03.333Z,1.23
2022-09-01T04:57:31.491Z,0.80
2022-09-01T04:59:59.786Z,0.90
2022-09-01T05:02:28.999Z,1.50
2022-09-01T05:04:58.799Z,0.75
2022-09-01T05:07:27.037Z,0.80
2022-09-01T05:09:58.069Z,0.70
2022-09-01T05:12:29.441Z,0.60
2022-09-01T05:14:56.829Z,1.10
2022-09-01T05:17:29.111Z,1.45
2022-09-01T05:19:56.995Z,0.70
2022-09-01T05:22:24.255Z,1.60
2022-09-01T05:24:51.572Z,0.60
2022-09-01T05:27:22.963Z,1.73
2022-09-01T05:29:50.460Z,1.08
2022-09-01T05:32:17.845Z,2.20
2022-09-01T05:34:46.171Z,0.60
2022-09-01T05:37:14.578Z,2.20
2022-09-01T05:39:41.893Z,0.68
2022-09-01T05:42:09.319Z,1.27
2022-09-01T05:44:44.053Z,2.47
2022-09-01T05:47:20.468Z,2.05
2022-09-01T05:49:50.191Z,1.45
2022-09-01T05:52:17.628Z,1.80
2022-09-01T05:54:46.029Z,0.63
2022-09-01T05:57:33.176Z,1.90
2022-09-01T06:00:02.193Z,0.77
2022-09-01T06:02:30.833Z,1.05
2022-09-01T06:04:59.894Z,1.00
2022-09-01T06:07:28.581Z,1.45
2022-09-01T06:09:56.974Z,1.15
2022-09-01T06:12:24.809Z,1.50
2022-09-01T06:14:54.474Z,1.08
2022-09-01T06:17:27.047Z,1.15
2022-09-01T06:19:56.336Z,2.22
2022-09-01T06:22:25.680Z,1.83
2022-09-01T06:24:56.897Z,2.47
2022-09-01T06:27:28.320Z,2.85
2022-09-01T06:29:58.072Z,1.83
2022-09-01T06:32:26.088Z,1.30
2022-09-01T06:34:53.647Z,3.92
2022-09-01T06:37:22.456Z,6.18
2022-09-01T06:39:50.692Z,8.80
2022-09-01T06:42:19.572Z,10.35
2022-09-01T06:44:47.136Z,7.65
2022-09-01T06:47:15.515Z,7.68
2022-09-01T06:49:43.017Z,5.22
2022-09-01T06:52:13.776Z,3.47
2022-09-01T06:54:43.841Z,5.70
2022-09-01T06:59:58.628Z,5.45
2022-09-01T07:02:26.457Z,5.25
2022-09-01T07:04:54.897Z,7.25
2022-09-01T07:10:25.720Z,9.63
2022-09-01T07:13:11.817Z,7.72
2022-09-01T07:18:30.947Z,8.65
2022-09-01T07:21:06.993Z,6.32
2022-09-01T07:23:49.111Z,6.18
2022-09-01T07:29:13.798Z,3.20
2022-09-01T07:32:43.711Z,3.15
2022-09-01T07:34:38.851Z,5.15
2022-09-01T07:39:55.909Z,3.42
2022-09-01T07:45:28.846Z,2.78
2022-09-01T07:53:22.549Z,2.45
2022-09-01T07:55:52.274Z,2.38
2022-09-01T07:58:22.109Z,2.92
2022-09-01T08:00:50.131Z,3.90
2022-09-01T08:03:19.729Z,2.80
2022-09-01T08:05:48.964Z,5.25
2022-09-01T08:08:19.686Z,3.05
2022-09-01T08:10:49.403Z,2.72
2022-09-01T08:13:18.963Z,2.42
2022-09-01T08:18:52.288Z,2.95
2022-09-01T08:21:23.523Z,3.58
2022-09-01T08:23:53.145Z,2.92
2022-09-01T08:26:23.009Z,6.00
2022-09-01T08:28:55.003Z,3.17
2022-09-01T08:31:24.974Z,3.72
2022-09-01T08:33:52.508Z,2.95
2022-09-01T08:36:23.960Z,1.70
2022-09-01T08:38:52.650Z,3.22
2022-09-01T08:41:41.265Z,2.10
2022-09-01T08:44:22.382Z,3.22
2022-09-01T08:46:59.709Z,1.80
2022-09-01T08:49:28.133Z,1.67
2022-09-01T08:52:25.529Z,2.28
2022-09-01T08:55:01.283Z,2.28
2022-09-01T08:57:41.249Z,2.83
2022-09-01T09:00:12.670Z,5.22
2022-09-01T09:02:51.823Z,5.13
2022-09-01T09:05:40.790Z,3.10
2022-09-01T09:08:33.198Z,2.35
2022-09-01T09:11:15.834Z,3.42
2022-09-01T09:13:43.022Z,1.70
2022-09-01T09:16:17.489Z,4.18
2022-09-01T09:22:01.024Z,2.78
2022-09-01T09:24:38.634Z,4.07
2022-09-01T09:27:07.014Z,3.22
2022-09-01T09:29:36.857Z,3.05
2022-09-01T09:32:35.498Z,3.75
2022-09-01T09:34:56.696Z,3.03
2022-09-01T09:37:26.422Z,3.40
2022-09-01T09:40:11.071Z,2.42
2022-09-01T09:42:40.096Z,2.53
2022-09-01T09:45:24.819Z,2.22
2022-09-01T09:50:33.477Z,1.90
2022-09-01T09:53:29.076Z,4.75
2022-09-01T09:55:59.408Z,2.95
2022-09-01T09:58:40.566Z,2.03
2022-09-01T10:01:17.661Z,4.50
2022-09-01T10:03:49.073Z,3.50
2022-09-01T10:06:32.377Z,1.58
2022-09-01T10:09:05.003Z,1.58
2022-09-01T10:11:42.734Z,2.00
2022-09-01T10:14:52.138Z,2.35
2022-09-01T10:17:39.238Z,2.58
2022-09-01T10:20:17.528Z,1.60
2022-09-01T10:22:48.578Z,5.40
2022-09-01T10:25:32.239Z,2.10
2022-09-01T10:28:11.152Z,2.67
2022-09-01T10:30:43.730Z,3.38
2022-09-01T10:33:19.925Z,2.33
2022-09-01T10:35:51.902Z,1.42
2022-09-01T10:38:28.579Z,1.30
2022-09-01T10:41:14.734Z,1.48
2022-09-01T10:43:48.966Z,1.98
2022-09-01T10:46:26.171Z,2.05
2022-09-01T10:49:04.483Z,3.05
2022-09-01T10:51:50.622Z,2.22
2022-09-01T10:54:55.797Z,1.75
2022-09-01T10:57:34.457Z,1.27
2022-09-01T11:00:40.404Z,1.17
2022-09-01T11:06:42.175Z,4.88
2022-09-01T11:09:32.470Z,3.72
2022-09-01T11:12:30.022Z,1.70
2022-09-01T11:15:26.754Z,2.08
2022-09-01T11:17:57.912Z,4.45
2022-09-01T11:20:35.961Z,1.20
2022-09-01T11:23:05.635Z,2.60
2022-09-01T11:25:39.082Z,1.50
2022-09-01T11:28:18.074Z,2.40
2022-09-01T11:31:08.430Z,2.22
2022-09-01T11:33:42.173Z,1.23
2022-09-01T11:36:28.629Z,2.03
2022-09-01T11:39:17.727Z,0.90
2022-09-01T11:41:55.814Z,1.23
2022-09-01T11:44:33.822Z,0.80
2022-09-01T11:47:14.377Z,2.00
2022-09-01T11:49:58.100Z,1.83
2022-09-01T11:52:30.172Z,1.35
2022-09-01T11:54:58.852Z,2.63
2022-09-01T11:57:28.219Z,1.90
2022-09-01T11:59:57.564Z,1.38
2022-09-01T12:02:33.920Z,1.60
2022-09-01T12:05:24.839Z,2.70
2022-09-01T12:07:52.777Z,1.58
2022-09-01T12:10:38.526Z,0.80
2022-09-01T12:13:17.511Z,1.95
2022-09-01T12:16:16.454Z,0.90
2022-09-01T12:18:48.492Z,0.70
2022-09-01T12:21:38.230Z,0.60
2022-09-01T12:24:18.097Z,1.42
2022-09-01T12:26:48.203Z,1.15
2022-09-01T12:29:16.785Z,0.73
2022-09-01T12:31:46.769Z,0.90
2022-09-01T12:34:28.205Z,1.50
2022-09-01T12:37:15.755Z,0.85
2022-09-01T12:39:48.879Z,0.68
2022-09-01T12:42:28.362Z,0.60
2022-09-01T12:45:02.416Z,0.95
2022-09-01T12:47:40.355Z,0.98
2022-09-01T12:50:16.449Z,0.85
2022-09-01T12:52:54.427Z,1.00
2022-09-01T12:55:51.268Z,0.75
2022-09-01T12:58:26.982Z,0.68
2022-09-01T13:01:00.420Z,0.80
2022-09-01T13:03:29.529Z,1.20
2022-09-01T13:06:01.959Z,1.15
2022-09-01T13:08:33.128Z,0.70
2022-09-01T13:11:11.288Z,1.08
2022-09-01T13:13:39.800Z,0.75
2022-09-01T13:16:13.096Z,0.50
2022-09-01T13:21:31.643Z,0.70
2022-09-01T13:23:58.981Z,1.95
2022-09-01T13:26:26.375Z,0.60
2022-09-01T13:28:54.094Z,1.73
2022-09-01T13:31:29.452Z,1.63
2022-09-01T13:34:22.651Z,0.70
2022-09-01T13:36:51.703Z,1.85
2022-09-01T13:39:20.843Z,2.65
2022-09-01T13:41:49.635Z,1.92
2022-09-01T13:44:18.516Z,2.03
2022-09-01T13:52:23.727Z,1.92
2022-09-01T13:54:51.432Z,0.47
2022-09-01T13:57:18.774Z,0.50
2022-09-01T13:59:46.136Z,0.80
2022-09-01T14:02:13.578Z,1.08
2022-09-01T14:04:40.976Z,0.50
2022-09-01T14:07:08.292Z,0.68
2022-09-01T14:09:35.935Z,0.68
2022-09-01T14:12:03.597Z,1.20
2022-09-01T14:17:18.322Z,1.98
2022-09-01T14:19:52.917Z,0.70
2022-09-01T14:22:20.435Z,0.85
2022-09-01T14:24:47.818Z,0.50
2022-09-01T14:27:15.199Z,1.60
2022-09-01T14:32:08.990Z,5.43
2022-09-01T14:34:37.610Z,0.60
2022-09-01T14:37:05.007Z,1.58
2022-09-01T14:39:32.421Z,1.35
2022-09-01T14:41:59.808Z,0.50
2022-09-01T14:44:27.111Z,0.70
2022-09-01T14:46:54.587Z,0.50
2022-09-01T14:49:22.595Z,0.68
2022-09-01T14:54:42.658Z,0.63
2022-09-01T14:59:58.389Z,2.25
2022-09-01T15:02:28.931Z,1.13
2022-09-01T15:04:56.826Z,1.20
2022-09-01T15:07:24.328Z,1.75
2022-09-01T15:09:51.823Z,0.52
2022-09-01T15:12:19.986Z,0.50
2022-09-01T15:14:47.279Z,0.50
2022-09-01T15:17:14.653Z,0.70
2022-09-01T15:19:42.159Z,1.48
2022-09-01T15:22:10.856Z,3.55
2022-09-01T15:24:38.299Z,1.60
2022-09-01T15:27:06.799Z,0.75
2022-09-01T15:29:34.888Z,0.40
2022-09-01T15:32:02.738Z,0.52
2022-09-01T15:34:30.105Z,0.60
2022-09-01T15:36:57.350Z,1.75
2022-09-01T15:39:24.805Z,0.50
2022-09-01T15:41:59.716Z,0.98
2022-09-01T15:44:27.100Z,2.80
2022-09-01T15:46:54.579Z,0.73
2022-09-01T15:49:21.838Z,0.73
2022-09-01T15:51:49.376Z,0.45
2022-09-01T15:54:19.850Z,1.67
2022-09-01T15:56:47.695Z,0.63
2022-09-01T15:59:15.714Z,1.63
2022-09-01T16:01:46.889Z,0.85
2022-09-01T16:04:19.908Z,0.55
2022-09-01T16:06:49.716Z,1.70
2022-09-01T16:09:21.172Z,2.30
2022-09-01T16:11:48.671Z,0.95
2022-09-01T16:14:16.184Z,0.40
2022-09-01T16:17:04.621Z,1.63
2022-09-01T16:19:41.868Z,0.45
2022-09-01T16:22:28.691Z,0.40
2022-09-01T16:25:00.912Z,1.17
2022-09-01T16:27:35.783Z,4.07
2022-09-01T16:30:10.273Z,2.72
2022-09-01T16:32:42.871Z,1.67
2022-09-01T16:35:10.381Z,4.22
2022-09-01T16:37:48.718Z,2.92
2022-09-01T16:40:45.130Z,6.43
2022-09-01T16:43:47.219Z,9.18
2022-09-01T16:46:45.497Z,8.90
2022-09-01T16:49:14.683Z,3.90
2022-09-01T16:51:51.833Z,5.97
2022-09-01T16:54:38.028Z,8.65
2022-09-01T16:57:19.016Z,7.00
2022-09-01T17:00:03.040Z,11.05
2022-09-01T17:02:51.068Z,9.35
2022-09-01T17:05:36.488Z,3.13
2022-09-01T17:08:13.517Z,5.88
2022-09-01T17:10:56.249Z,5.07
2022-09-01T17:13:55.805Z,6.18
2022-09-01T17:16:38.081Z,5.82
2022-09-01T17:19:08.640Z,5.10
2022-09-01T17:22:00.359Z,2.58
2022-09-01T17:24:44.718Z,4.38
2022-09-01T17:27:36.652Z,5.97
2022-09-01T17:30:07.166Z,6.18
2022-09-01T17:32:55.057Z,7.32
2022-09-01T17:35:36.505Z,6.32
2022-09-01T17:38:28.037Z,6.82
2022-09-01T17:41:34.559Z,3.88
2022-09-01T17:44:25.926Z,11.95
2022-09-01T17:47:11.915Z,9.68
2022-09-01T17:49:44.934Z,14.20
2022-09-01T17:52:32.575Z,6.68
2022-09-01T17:55:34.452Z,15.85
2022-09-01T17:58:47.606Z,18.63
2022-09-01T18:01:37.908Z,16.77
2022-09-01T18:04:44.414Z,12.75
2022-09-01T18:07:49.300Z,13.77
2022-09-01T18:10:27.313Z,12.13
2022-09-01T18:13:01.193Z,12.18
2022-09-01T18:15:36.068Z,6.45
2022-09-01T18:18:25.016Z,8.60
2022-09-01T18:21:03.383Z,7.72
2022-09-01T18:23:35.288Z,3.88
2022-09-01T18:26:32.404Z,13.20
2022-09-01T18:29:02.225Z,6.25
2022-09-01T18:31:46.083Z,6.47
2022-09-01T18:34:34.264Z,7.53
2022-09-01T18:37:21.237Z,7.82
2022-09-01T18:40:02.566Z,9.20
2022-09-01T18:42:48.895Z,5.32
2022-09-01T18:45:58.273Z,7.85
2022-09-01T18:48:46.314Z,8.48
2022-09-01T18:51:29.253Z,5.43
2022-09-01T18:54:08.736Z,6.88
2022-09-01T18:56:56.139Z,6.32
2022-09-01T18:59:57.278Z,9.20
2022-09-01T19:02:43.682Z,6.85
2022-09-01T19:05:38.556Z,7.35
2022-09-01T19:08:40.898Z,5.35
2022-09-01T19:11:36.343Z,9.20
2022-09-01T19:14:12.666Z,4.65
2022-09-01T19:16:56.432Z,4.90
2022-09-01T19:19:52.276Z,6.55
2022-09-01T19:22:27.506Z,3.08
2022-09-01T19:25:21.115Z,3.67
2022-09-01T19:28:01.990Z,5.03
2022-09-01T19:30:35.529Z,5.18
2022-09-01T19:33:06.049Z,6.80
2022-09-01T19:35:36.050Z,5.60
2022-09-01T19:38:08.862Z,3.25
2022-09-01T19:40:39.523Z,6.22
2022-09-01T19:43:18.001Z,3.25
2022-09-01T19:46:02.193Z,4.95
2022-09-01T19:48:43.757Z,2.08
2022-09-01T19:51:40.531Z,4.53
2022-09-01T19:54:34.764Z,3.97
2022-09-01T19:57:14.180Z,3.65
2022-09-01T19:59:55.715Z,5.55
2022-09-01T20:02:30.214Z,4.35
2022-09-01T20:05:06.160Z,2.22
2022-09-01T20:07:57.878Z,1.70
2022-09-01T20:10:37.672Z,3.85
2022-09-01T20:13:34.258Z,3.38
2022-09-01T20:16:13.574Z,1.45
2022-09-01T20:18:49.137Z,2.50
2022-09-01T20:21:21.474Z,2.72
2022-09-01T20:24:04.468Z,2.53
2022-09-01T20:26:54.503Z,2.25
2022-09-01T20:30:00.649Z,1.05
2022-09-01T20:32:51.660Z,1.90
2022-09-01T20:35:29.353Z,3.22
2022-09-01T20:38:39.505Z,1.63
2022-09-01T20:41:19.995Z,2.05
2022-09-01T20:43:51.680Z,1.52
2022-09-01T20:46:20.941Z,1.42
2022-09-01T20:48:49.065Z,1.02
2022-09-01T20:51:27.625Z,0.73
2022-09-01T20:54:07.213Z,1.67
2022-09-01T20:56:58.000Z,1.00
2022-09-01T20:59:46.447Z,1.40
2022-09-01T21:02:43.848Z,0.80
2022-09-01T21:05:41.617Z,1.65
2022-09-01T21:08:14.674Z,1.38
2022-09-01T21:11:09.449Z,2.03
2022-09-01T21:14:02.213Z,1.10
2022-09-01T21:16:51.198Z,0.80
2022-09-01T21:19:21.319Z,1.23
2022-09-01T21:22:05.602Z,1.20
2022-09-01T21:24:33.045Z,1.83
2022-09-01T21:27:07.261Z,1.52
2022-09-01T21:29:55.817Z,2.15
2022-09-01T21:32:23.987Z,1.83
2022-09-01T21:34:53.047Z,3.40
2022-09-01T21:37:22.512Z,2.50
2022-09-01T21:39:54.034Z,3.55
2022-09-01T21:42:34.909Z,4.30
2022-09-01T21:45:04.476Z,1.48
2022-09-01T21:47:32.734Z,3.58
2022-09-01T21:50:00.451Z,1.73
2022-09-01T21:52:28.147Z,1.45
2022-09-01T21:54:55.390Z,3.08
2022-09-01T21:57:23.105Z,3.22
2022-09-01T21:59:51.521Z,2.15
2022-09-01T22:02:20.504Z,1.88
2022-09-01T22:04:48.907Z,3.05
2022-09-01T22:07:17.047Z,1.80
2022-09-01T22:09:45.269Z,0.75
2022-09-01T22:12:13.072Z,4.32
2022-09-01T22:14:40.359Z,2.22
2022-09-01T22:17:07.968Z,2.15
2022-09-01T22:19:36.400Z,1.48
2022-09-01T22:22:04.370Z,3.25
2022-09-01T22:24:31.856Z,1.20
2022-09-01T22:26:59.502Z,1.30
2022-09-01T22:29:27.364Z,1.92
2022-09-01T22:31:54.678Z,1.67
2022-09-01T22:34:21.983Z,1.70
2022-09-01T22:36:50.020Z,1.52
2022-09-01T22:39:19.012Z,1.27
2022-09-01T22:41:49.161Z,0.77
2022-09-01T22:44:16.561Z,0.70
2022-09-01T22:46:44.148Z,2.15
2022-09-01T22:49:12.223Z,1.33
2022-09-01T22:51:41.424Z,2.15
2022-09-01T22:54:10.977Z,1.40
2022-09-01T22:56:40.498Z,1.45
2022-09-01T22:59:11.570Z,1.23
2022-09-01T23:01:42.539Z,1.08
2022-09-01T23:04:11.665Z,0.95
2022-09-01T23:06:43.731Z,1.80
2022-09-01T23:09:11.637Z,1.67
2022-09-01T23:11:38.978Z,1.50
2022-09-01T23:14:06.574Z,1.30
2022-09-01T23:16:34.633Z,1.17
2022-09-01T23:19:02.433Z,1.70
2022-09-01T23:21:33.388Z,1.10
2022-09-01T23:24:01.829Z,0.98
2022-09-01T23:26:32.010Z,0.80
2022-09-01T23:28:59.880Z,1.38
2022-09-01T23:31:30.029Z,0.90
2022-09-01T23:33:58.118Z,0.80
2022-09-01T23:36:27.469Z,0.95
2022-09-01T23:38:55.860Z,0.90
2022-09-01T23:41:29.322Z,1.15
2022-09-01T23:43:58.435Z,0.90
2022-09-01T23:46:36.943Z,1.80
2022-09-01T23:49:05.469Z,1.05
2022-09-01T23:51:33.301Z,0.93
2022-09-01T23:54:01.327Z,0.95
2022-09-01T23:56:29.831Z,1.88
2022-09-01T23:58:58.129Z,0.63
